createdAt,value
2023-01-22T00:01:21.220Z,3.25
2023-01-22T00:03:49.760Z,3.00
2023-01-22T00:06:17.493Z,2.00
2023-01-22T00:08:45.152Z,3.00
2023-01-22T00:11:12.862Z,2.00
2023-01-22T00:13:41.272Z,2.50
2023-01-22T00:16:10.417Z,3.25
2023-01-22T00:18:37.821Z,4.00
2023-01-22T00:21:05.937Z,3.00
2023-01-22T00:23:33.889Z,1.50
2023-01-22T00:26:04.135Z,3.00
2023-01-22T00:28:32.437Z,3.00
2023-01-22T00:31:01.805Z,3.00
2023-01-22T00:33:29.731Z,5.00
2023-01-22T00:35:57.899Z,4.00
2023-01-22T00:38:25.595Z,2.50
2023-01-22T00:40:53.027Z,1.50
2023-01-22T00:43:20.712Z,4.00
2023-01-22T00:45:48.099Z,4.00
2023-01-22T00:48:15.636Z,3.00
2023-01-22T00:50:42.946Z,3.75
2023-01-22T00:53:10.592Z,2.50
2023-01-22T00:55:38.449Z,3.00
2023-01-22T00:58:06.020Z,3.75
2023-01-22T01:00:34.561Z,2.50
2023-01-22T01:03:20.219Z,3.00
2023-01-22T01:05:47.871Z,3.25
2023-01-22T01:08:17.752Z,2.50
2023-01-22T01:10:46.348Z,3.00
2023-01-22T01:13:13.884Z,5.00
2023-01-22T01:15:42.201Z,1.50
2023-01-22T01:18:13.218Z,2.00
2023-01-22T01:20:41.385Z,3.00
2023-01-22T01:23:09.116Z,3.25
2023-01-22T01:25:39.730Z,3.50
2023-01-22T01:28:07.460Z,1.50
2023-01-22T01:30:34.886Z,1.50
2023-01-22T01:33:02.278Z,5.00
2023-01-22T01:35:29.726Z,1.50
2023-01-22T01:37:57.264Z,3.50
2023-01-22T01:40:24.923Z,1.00
2023-01-22T01:42:52.578Z,2.00
2023-01-22T01:45:21.297Z,4.00
2023-01-22T01:48:16.100Z,3.25
2023-01-22T01:50:49.166Z,2.50
2023-01-22T01:53:17.067Z,4.00
2023-01-22T01:55:44.722Z,3.00
2023-01-22T01:58:21.649Z,0.75
2023-01-22T02:00:54.296Z,1.00
2023-01-22T02:03:22.849Z,1.50
2023-01-22T02:05:50.458Z,3.50
2023-01-22T02:08:18.679Z,3.00
2023-01-22T02:10:46.237Z,0.00
2023-01-22T02:13:22.390Z,4.00
2023-01-22T02:15:49.989Z,4.00
2023-01-22T02:18:17.670Z,3.25
2023-01-22T02:21:00.100Z,3.00
2023-01-22T02:23:31.258Z,1.00
2023-01-22T02:26:00.559Z,3.00
2023-01-22T02:28:28.016Z,3.00
2023-01-22T02:30:57.419Z,3.75
2023-01-22T02:33:25.643Z,2.00
2023-01-22T02:35:53.280Z,0.75
2023-01-22T02:38:20.834Z,3.50
2023-01-22T02:40:51.767Z,4.00
2023-01-22T02:43:20.621Z,3.50
2023-01-22T02:45:48.275Z,3.25
2023-01-22T02:48:16.349Z,3.00
2023-01-22T02:50:45.572Z,3.50
2023-01-22T02:53:13.931Z,2.50
2023-01-22T02:55:45.095Z,6.25
2023-01-22T02:58:12.737Z,6.00
2023-01-22T03:00:40.318Z,2.50
2023-01-22T03:03:08.232Z,3.50
2023-01-22T03:05:35.743Z,1.00
2023-01-22T03:08:05.064Z,3.00
2023-01-22T03:10:32.771Z,2.75
2023-01-22T03:13:19.801Z,1.75
2023-01-22T03:16:05.978Z,2.50
2023-01-22T03:18:52.299Z,3.50
2023-01-22T03:21:20.579Z,2.00
2023-01-22T03:23:50.922Z,2.00
2023-01-22T03:26:19.937Z,1.50
2023-01-22T03:28:49.743Z,3.00
2023-01-22T03:31:18.520Z,1.00
2023-01-22T03:33:46.329Z,0.75
2023-01-22T03:36:15.717Z,1.00
2023-01-22T03:38:51.250Z,4.00
2023-01-22T03:41:21.876Z,2.50
2023-01-22T03:43:50.216Z,3.25
2023-01-22T03:46:25.148Z,4.25
2023-01-22T03:48:57.213Z,3.00
2023-01-22T03:51:26.349Z,1.00
2023-01-22T03:53:53.912Z,1.00
2023-01-22T03:56:24.184Z,2.50
2023-01-22T03:58:54.703Z,1.00
2023-01-22T04:01:26.440Z,3.00
2023-01-22T04:03:56.157Z,3.00
2023-01-22T04:06:26.633Z,3.75
2023-01-22T04:08:55.930Z,3.00
2023-01-22T04:11:30.566Z,3.00
2023-01-22T04:13:58.399Z,2.00
2023-01-22T04:16:29.049Z,2.00
2023-01-22T04:18:56.667Z,1.50
2023-01-22T04:21:42.751Z,3.00
2023-01-22T04:24:12.739Z,2.75
2023-01-22T04:26:41.615Z,5.00
2023-01-22T04:29:10.075Z,3.25
2023-01-22T04:31:37.699Z,4.00
2023-01-22T04:34:14.908Z,1.50
2023-01-22T04:36:46.972Z,3.25
2023-01-22T04:39:14.920Z,1.50
2023-01-22T04:41:42.549Z,2.00
2023-01-22T04:44:10.203Z,3.00
2023-01-22T04:46:37.604Z,2.00
2023-01-22T04:49:05.063Z,5.75
2023-01-22T04:51:32.549Z,3.00
2023-01-22T04:54:00.088Z,3.00
2023-01-22T04:56:27.770Z,4.00
2023-01-22T04:58:55.441Z,2.00
2023-01-22T05:01:22.908Z,3.50
2023-01-22T05:03:51.142Z,5.50
2023-01-22T05:06:18.479Z,4.00
2023-01-22T05:08:45.853Z,3.25
2023-01-22T05:11:13.821Z,0.25
2023-01-22T05:13:51.972Z,6.25
2023-01-22T05:16:20.095Z,5.00
2023-01-22T05:18:48.147Z,3.50
2023-01-22T05:21:15.740Z,4.00
2023-01-22T05:23:44.089Z,5.75
2023-01-22T05:26:12.182Z,1.00
2023-01-22T05:29:15.083Z,0.50
2023-01-22T05:31:58.651Z,3.50
2023-01-22T05:34:31.223Z,3.50
2023-01-22T05:36:59.164Z,3.00
2023-01-22T05:39:28.833Z,3.00
2023-01-22T05:41:59.066Z,3.50
2023-01-22T05:44:26.809Z,5.75
2023-01-22T05:46:55.805Z,7.00
2023-01-22T05:49:46.256Z,4.50
2023-01-22T05:52:15.937Z,3.00
2023-01-22T05:54:44.467Z,5.00
2023-01-22T05:57:12.478Z,2.50
2023-01-22T05:59:40.470Z,6.00
2023-01-22T06:02:09.238Z,4.00
2023-01-22T06:04:42.253Z,4.00
2023-01-22T06:07:19.320Z,2.00
2023-01-22T06:09:46.856Z,1.50
2023-01-22T06:12:16.266Z,6.25
2023-01-22T06:14:43.863Z,3.25
2023-01-22T06:17:12.974Z,4.50
2023-01-22T06:19:45.762Z,6.00
2023-01-22T06:22:14.041Z,6.25
2023-01-22T06:24:48.443Z,4.25
2023-01-22T06:27:18.919Z,4.50
2023-01-22T06:29:54.540Z,4.50
2023-01-22T06:32:22.477Z,7.00
2023-01-22T06:34:51.640Z,6.00
2023-01-22T06:37:19.319Z,7.00
2023-01-22T06:39:47.170Z,4.50
2023-01-22T06:42:37.618Z,4.00
2023-01-22T06:45:06.891Z,3.50
2023-01-22T06:47:35.013Z,9.00
2023-01-22T06:50:03.793Z,4.00
2023-01-22T06:52:31.090Z,4.50
2023-01-22T06:54:58.420Z,0.00
2023-01-22T06:57:26.563Z,2.50
2023-01-22T06:59:53.844Z,5.00
2023-01-22T07:02:21.856Z,6.00
2023-01-22T07:04:49.138Z,6.00
2023-01-22T07:07:19.888Z,6.00
2023-01-22T07:09:47.375Z,6.50
2023-01-22T07:12:14.856Z,5.50
2023-01-22T07:14:42.296Z,4.00
2023-01-22T07:17:10.196Z,6.00
2023-01-22T07:19:37.555Z,5.50
2023-01-22T07:22:04.919Z,6.00
2023-01-22T07:24:32.254Z,5.00
2023-01-22T07:27:01.200Z,1.00
2023-01-22T07:29:28.613Z,5.00
2023-01-22T07:31:56.065Z,6.50
2023-01-22T07:34:23.483Z,3.25
2023-01-22T07:36:50.848Z,4.00
2023-01-22T07:39:18.146Z,6.00
2023-01-22T07:41:45.623Z,3.25
2023-01-22T07:44:13.041Z,3.75
2023-01-22T07:46:40.860Z,3.00
2023-01-22T07:49:08.370Z,3.75
2023-01-22T07:51:35.793Z,4.50
2023-01-22T07:54:03.566Z,7.20
2023-01-22T07:56:31.194Z,4.00
2023-01-22T07:58:59.210Z,3.00
2023-01-22T08:01:26.771Z,3.80
2023-01-22T08:03:54.465Z,3.60
2023-01-22T08:06:22.083Z,3.40
2023-01-22T08:08:50.002Z,6.60
2023-01-22T08:11:17.654Z,3.00
2023-01-22T08:13:45.560Z,4.00
2023-01-22T08:16:13.748Z,5.20
2023-01-22T08:18:41.307Z,5.80
2023-01-22T08:21:09.391Z,6.80
2023-01-22T08:23:36.985Z,1.40
2023-01-22T08:26:05.407Z,5.60
2023-01-22T08:28:33.590Z,7.00
2023-01-22T08:31:03.201Z,3.67
2023-01-22T08:33:33.892Z,2.75
2023-01-22T08:36:01.645Z,5.00
2023-01-22T08:38:29.206Z,5.50
2023-01-22T08:40:56.941Z,2.50
2023-01-22T08:43:24.641Z,6.25
2023-01-22T08:45:52.360Z,4.00
2023-01-22T08:48:20.123Z,4.00
2023-01-22T08:50:48.119Z,2.00
2023-01-22T08:53:15.633Z,2.00
2023-01-22T08:55:49.665Z,4.00
2023-01-22T08:58:17.208Z,3.50
2023-01-22T09:00:44.848Z,3.50
2023-01-22T09:03:13.505Z,6.75
2023-01-22T09:05:41.344Z,4.50
2023-01-22T09:08:09.417Z,5.20
2023-01-22T09:10:37.051Z,4.00
2023-01-22T09:13:05.050Z,6.25
2023-01-22T09:15:32.642Z,5.50
2023-01-22T09:18:00.575Z,6.75
2023-01-22T09:20:28.161Z,4.00
2023-01-22T09:22:55.519Z,4.00
2023-01-22T09:25:23.066Z,2.00
2023-01-22T09:27:50.840Z,3.25
2023-01-22T09:30:18.949Z,6.00
2023-01-22T09:32:46.646Z,6.50
2023-01-22T09:35:16.417Z,6.00
2023-01-22T09:37:44.452Z,6.75
2023-01-22T09:40:36.381Z,2.50
2023-01-22T09:43:20.417Z,4.50
2023-01-22T09:45:50.747Z,6.25
2023-01-22T09:48:19.688Z,6.00
2023-01-22T09:50:48.895Z,5.75
2023-01-22T09:53:19.946Z,8.00
2023-01-22T09:55:50.973Z,6.75
2023-01-22T09:58:22.404Z,5.80
2023-01-22T10:01:04.715Z,6.00
2023-01-22T10:03:37.124Z,5.00
2023-01-22T10:06:15.005Z,7.00
2023-01-22T10:08:52.797Z,6.25
2023-01-22T10:11:20.930Z,5.00
2023-01-22T10:13:54.151Z,3.60
2023-01-22T10:16:21.848Z,5.00
2023-01-22T10:18:59.646Z,6.75
2023-01-22T10:21:30.163Z,6.00
2023-01-22T10:23:58.935Z,6.00
2023-01-22T10:26:43.720Z,7.80
2023-01-22T10:29:30.213Z,3.20
2023-01-22T10:32:03.604Z,5.20
2023-01-22T10:34:36.887Z,7.40
2023-01-22T10:37:15.770Z,6.00
2023-01-22T10:40:00.408Z,4.00
2023-01-22T10:42:29.725Z,5.60
2023-01-22T10:45:31.474Z,7.50
2023-01-22T10:48:15.607Z,6.20
2023-01-22T10:50:45.455Z,5.20
2023-01-22T10:53:36.969Z,5.20
2023-01-22T10:56:08.409Z,5.60
2023-01-22T10:58:39.080Z,6.40
2023-01-22T11:01:27.960Z,3.40
2023-01-22T11:03:55.648Z,3.00
2023-01-22T11:06:39.680Z,7.20
2023-01-22T11:09:20.525Z,4.40
2023-01-22T11:11:56.794Z,6.00
2023-01-22T11:14:31.296Z,2.60
2023-01-22T11:17:11.160Z,1.40
2023-01-22T11:19:48.891Z,3.00
2023-01-22T11:22:43.600Z,9.00
2023-01-22T11:25:14.159Z,7.40
2023-01-22T11:27:59.472Z,5.20
2023-01-22T11:30:44.425Z,6.00
2023-01-22T11:33:32.695Z,7.50
2023-01-22T11:36:44.579Z,4.40
2023-01-22T11:39:27.663Z,6.00
2023-01-22T11:41:58.100Z,5.50
2023-01-22T11:44:31.375Z,6.00
2023-01-22T11:47:36.498Z,3.40
2023-01-22T11:50:09.939Z,4.00
2023-01-22T11:53:28.405Z,7.00
2023-01-22T11:56:14.246Z,7.20
2023-01-22T11:59:04.787Z,7.00
2023-01-22T12:02:00.418Z,1.00
2023-01-22T12:04:42.803Z,7.00
2023-01-22T12:07:42.904Z,5.60
2023-01-22T12:10:28.725Z,4.00
2023-01-22T12:13:18.206Z,1.00
2023-01-22T12:16:28.234Z,5.40
2023-01-22T12:19:14.687Z,8.20
2023-01-22T12:21:50.245Z,4.80
2023-01-22T12:24:32.134Z,3.00
2023-01-22T12:27:24.679Z,6.80
2023-01-22T12:30:17.634Z,4.80
2023-01-22T12:32:54.995Z,6.00
2023-01-22T12:35:23.460Z,6.60
2023-01-22T12:38:10.559Z,6.60
2023-01-22T12:41:08.545Z,7.00
2023-01-22T12:43:58.271Z,7.40
2023-01-22T12:46:50.568Z,7.40
2023-01-22T12:49:21.011Z,5.20
2023-01-22T12:51:53.981Z,6.80
2023-01-22T12:54:33.734Z,4.80
2023-01-22T12:57:25.402Z,3.40
2023-01-22T12:59:57.694Z,7.25
2023-01-22T13:02:32.394Z,9.00
2023-01-22T13:05:19.459Z,6.00
2023-01-22T13:07:47.901Z,5.50
2023-01-22T13:10:26.458Z,6.80
2023-01-22T13:13:16.111Z,6.50
2023-01-22T13:15:51.716Z,7.25
2023-01-22T13:18:28.801Z,6.20
2023-01-22T13:21:08.518Z,6.20
2023-01-22T13:23:41.550Z,4.40
2023-01-22T13:26:17.765Z,6.80
2023-01-22T13:28:51.437Z,6.20
2023-01-22T13:31:19.110Z,11.60
2023-01-22T13:34:09.041Z,7.00
2023-01-22T13:36:46.457Z,6.40
2023-01-22T13:39:25.449Z,5.60
2023-01-22T13:41:55.084Z,6.60
2023-01-22T13:44:33.269Z,4.00
2023-01-22T13:47:01.105Z,11.60
2023-01-22T13:49:31.780Z,6.00
2023-01-22T13:52:05.230Z,6.60
2023-01-22T13:54:37.547Z,6.60
2023-01-22T13:57:06.853Z,6.20
2023-01-22T13:59:36.833Z,7.00
2023-01-22T14:02:24.963Z,5.20
2023-01-22T14:04:52.628Z,6.00
2023-01-22T14:07:38.129Z,8.20
2023-01-22T14:10:22.192Z,4.00
2023-01-22T14:13:03.553Z,3.20
2023-01-22T14:15:31.737Z,7.00
2023-01-22T14:18:14.414Z,7.00
2023-01-22T14:20:46.245Z,5.20
2023-01-22T14:23:15.248Z,6.40
2023-01-22T14:25:45.757Z,4.00
2023-01-22T14:28:13.332Z,7.50
2023-01-22T14:30:40.708Z,7.40
2023-01-22T14:33:25.270Z,7.80
2023-01-22T14:35:53.950Z,7.00
2023-01-22T14:38:21.845Z,7.00
2023-01-22T14:40:49.227Z,9.25
2023-01-22T14:43:16.817Z,9.75
2023-01-22T14:45:46.100Z,11.25
2023-01-22T14:48:18.292Z,8.50
2023-01-22T14:50:46.130Z,8.50
2023-01-22T14:53:14.591Z,9.50
2023-01-22T14:55:45.618Z,11.50
2023-01-22T14:58:14.416Z,12.00
2023-01-22T15:00:41.743Z,7.00
2023-01-22T15:03:09.362Z,9.25
2023-01-22T15:05:36.665Z,6.25
2023-01-22T15:08:04.306Z,10.00
2023-01-22T15:10:31.819Z,8.25
2023-01-22T15:12:59.409Z,11.00
2023-01-22T15:15:28.694Z,9.25
2023-01-22T15:17:57.379Z,10.50
2023-01-22T15:20:25.045Z,16.00
2023-01-22T15:22:52.449Z,6.80
2023-01-22T15:25:20.156Z,9.00
2023-01-22T15:27:47.632Z,9.00
2023-01-22T15:30:15.400Z,9.00
2023-01-22T15:32:43.218Z,12.00
2023-01-22T15:35:10.722Z,10.00
2023-01-22T15:37:38.206Z,8.00
2023-01-22T15:40:06.122Z,9.75
2023-01-22T15:42:35.885Z,7.50
2023-01-22T15:45:05.238Z,3.40
2023-01-22T15:47:32.912Z,7.75
2023-01-22T15:50:00.198Z,7.40
2023-01-22T15:52:27.701Z,7.00
2023-01-22T15:54:55.337Z,10.00
2023-01-22T15:57:23.045Z,9.50
2023-01-22T15:59:51.683Z,8.00
2023-01-22T16:02:19.137Z,9.25
2023-01-22T16:04:46.406Z,8.60
2023-01-22T16:07:13.708Z,6.40
2023-01-22T16:09:41.096Z,7.00
2023-01-22T16:12:09.252Z,6.25
2023-01-22T16:14:36.731Z,9.25
2023-01-22T16:17:04.187Z,9.00
2023-01-22T16:19:31.471Z,7.00
2023-01-22T16:21:58.957Z,5.75
2023-01-22T16:24:26.425Z,6.00
2023-01-22T16:26:54.026Z,6.25
2023-01-22T16:29:21.461Z,6.00
2023-01-22T16:31:48.801Z,8.00
2023-01-22T16:34:18.416Z,6.75
2023-01-22T16:36:46.378Z,10.00
2023-01-22T16:39:22.410Z,9.00
2023-01-22T16:41:51.660Z,8.00
2023-01-22T16:44:24.833Z,9.00
2023-01-22T16:46:57.420Z,6.75
2023-01-22T16:49:28.519Z,6.75
2023-01-22T16:52:00.253Z,3.50
2023-01-22T16:54:35.327Z,5.00
2023-01-22T16:57:07.527Z,6.50
2023-01-22T16:59:37.082Z,4.50
2023-01-22T17:02:08.307Z,6.25
2023-01-22T17:04:35.766Z,3.75
2023-01-22T17:07:05.755Z,6.25
2023-01-22T17:09:36.057Z,6.00
2023-01-22T17:12:05.808Z,7.00
2023-01-22T17:14:36.554Z,7.50
2023-01-22T17:17:05.915Z,6.75
2023-01-22T17:19:33.672Z,7.50
2023-01-22T17:22:02.314Z,7.00
2023-01-22T17:24:31.493Z,9.40
2023-01-22T17:26:59.066Z,11.00
2023-01-22T17:29:27.199Z,5.00
2023-01-22T17:31:56.058Z,8.00
2023-01-22T17:34:23.605Z,9.00
2023-01-22T17:36:51.146Z,5.75
2023-01-22T17:39:20.214Z,11.00
2023-01-22T17:41:48.023Z,10.00
2023-01-22T17:44:15.595Z,3.75
2023-01-22T17:46:45.967Z,5.60
2023-01-22T17:49:13.386Z,6.60
2023-01-22T17:51:40.770Z,1.00
2023-01-22T17:54:08.402Z,6.60
2023-01-22T17:56:43.272Z,9.00
2023-01-22T17:59:11.951Z,10.40
2023-01-22T18:01:40.539Z,8.60
2023-01-22T18:04:10.853Z,6.80
2023-01-22T18:06:41.599Z,4.40
2023-01-22T18:09:10.613Z,9.60
2023-01-22T18:11:39.733Z,8.50
2023-01-22T18:14:16.012Z,11.75
2023-01-22T18:16:44.486Z,10.00
2023-01-22T18:19:11.857Z,4.20
2023-01-22T18:21:39.960Z,9.20
2023-01-22T18:24:08.898Z,7.00
2023-01-22T18:26:36.622Z,6.60
2023-01-22T18:29:05.212Z,6.80
2023-01-22T18:31:33.134Z,4.00
2023-01-22T18:34:03.044Z,4.40
2023-01-22T18:36:36.926Z,6.80
2023-01-22T18:39:11.340Z,6.60
2023-01-22T18:41:40.535Z,6.00
2023-01-22T18:44:09.037Z,6.80
2023-01-22T18:46:37.284Z,6.40
2023-01-22T18:49:09.698Z,7.00
2023-01-22T18:51:37.191Z,7.00
2023-01-22T18:54:07.205Z,4.00
2023-01-22T18:56:35.074Z,4.60
2023-01-22T18:59:02.501Z,6.60
2023-01-22T19:01:32.672Z,7.50
2023-01-22T19:04:03.149Z,3.40
2023-01-22T19:06:36.957Z,2.60
2023-01-22T19:09:07.905Z,5.60
2023-01-22T19:11:38.198Z,3.20
2023-01-22T19:14:07.495Z,9.20
2023-01-22T19:16:35.284Z,12.60
2023-01-22T19:19:11.542Z,12.40
2023-01-22T19:21:49.161Z,12.25
2023-01-22T19:24:22.451Z,11.50
2023-01-22T19:26:51.471Z,10.00
2023-01-22T19:29:19.151Z,8.40
2023-01-22T19:31:50.944Z,13.00
2023-01-22T19:34:23.785Z,7.50
2023-01-22T19:36:53.640Z,9.80
2023-01-22T19:39:21.470Z,7.50
2023-01-22T19:41:49.560Z,7.40
2023-01-22T19:44:17.039Z,4.40
2023-01-22T19:46:44.570Z,10.00
2023-01-22T19:49:13.449Z,6.20
2023-01-22T19:51:41.078Z,6.00
2023-01-22T19:54:10.385Z,7.00
2023-01-22T19:56:38.738Z,3.00
2023-01-22T19:59:17.652Z,11.20
2023-01-22T20:01:46.762Z,9.40
2023-01-22T20:04:34.041Z,4.00
2023-01-22T20:07:06.140Z,6.00
2023-01-22T20:09:35.564Z,7.80
2023-01-22T20:12:03.294Z,9.00
2023-01-22T20:14:33.902Z,3.80
2023-01-22T20:17:02.626Z,3.40
2023-01-22T20:19:31.708Z,7.40
2023-01-22T20:22:00.710Z,9.40
2023-01-22T20:24:28.367Z,6.00
2023-01-22T20:26:57.119Z,7.80
2023-01-22T20:29:24.555Z,6.60
2023-01-22T20:31:53.328Z,7.40
2023-01-22T20:34:21.718Z,7.00
2023-01-22T20:36:49.543Z,7.00
2023-01-22T20:39:17.372Z,10.00
2023-01-22T20:41:45.920Z,8.20
2023-01-22T20:44:14.003Z,6.40
2023-01-22T20:46:44.559Z,12.00
2023-01-22T20:49:13.071Z,12.00
2023-01-22T20:51:42.650Z,9.00
2023-01-22T20:54:11.435Z,7.40
2023-01-22T20:56:39.244Z,6.40
2023-01-22T20:59:17.430Z,9.80
2023-01-22T21:01:45.404Z,3.80
2023-01-22T21:04:14.909Z,9.20
2023-01-22T21:06:42.891Z,4.20
2023-01-22T21:09:11.125Z,7.25
2023-01-22T21:11:40.656Z,10.20
2023-01-22T21:14:10.585Z,10.00
2023-01-22T21:16:40.272Z,6.75
2023-01-22T21:19:23.644Z,7.00
2023-01-22T21:21:51.564Z,3.20
2023-01-22T21:24:20.205Z,8.60
2023-01-22T21:26:47.823Z,7.80
2023-01-22T21:29:21.307Z,1.00
2023-01-22T21:31:51.318Z,6.00
2023-01-22T21:34:21.657Z,5.20
2023-01-22T21:36:53.592Z,5.20
2023-01-22T21:39:24.481Z,3.00
2023-01-22T21:42:14.654Z,3.20
2023-01-22T21:45:01.181Z,7.20
2023-01-22T21:47:29.452Z,6.25
2023-01-22T21:49:57.081Z,6.00
2023-01-22T21:52:24.770Z,7.00
2023-01-22T21:54:52.507Z,7.80
2023-01-22T21:57:20.188Z,7.40
2023-01-22T21:59:47.479Z,3.40
2023-01-22T22:02:17.808Z,7.80
2023-01-22T22:04:45.545Z,9.20
2023-01-22T22:07:13.610Z,4.40
2023-01-22T22:09:41.372Z,6.60
2023-01-22T22:12:10.323Z,8.60
2023-01-22T22:14:37.889Z,10.80
2023-01-22T22:17:05.577Z,9.60
2023-01-22T22:19:33.162Z,9.80
2023-01-22T22:22:00.820Z,6.80
2023-01-22T22:24:28.493Z,10.40
2023-01-22T22:26:56.089Z,8.60
2023-01-22T22:29:23.875Z,12.60
2023-01-22T22:31:51.613Z,6.80
2023-01-22T22:34:19.320Z,9.00
2023-01-22T22:36:47.246Z,6.40
2023-01-22T22:39:14.771Z,11.60
2023-01-22T22:41:42.426Z,9.20
2023-01-22T22:44:11.155Z,6.40
2023-01-22T22:46:39.994Z,6.00
2023-01-22T22:49:11.749Z,6.40
2023-01-22T22:51:41.480Z,10.80
2023-01-22T22:54:18.393Z,9.40
2023-01-22T22:56:49.453Z,8.00
2023-01-22T22:59:20.020Z,7.80
2023-01-22T23:01:51.445Z,8.60
2023-01-22T23:04:19.585Z,9.40
2023-01-22T23:06:47.950Z,10.40
2023-01-22T23:09:19.825Z,7.00
2023-01-22T23:11:53.431Z,9.60
2023-01-22T23:14:21.191Z,9.20
2023-01-22T23:16:49.184Z,6.40
2023-01-22T23:19:19.590Z,7.00
2023-01-22T23:21:50.648Z,9.40
2023-01-22T23:24:18.371Z,5.20
2023-01-22T23:26:46.033Z,7.80
2023-01-22T23:29:17.663Z,7.80
2023-01-22T23:31:45.628Z,7.00
2023-01-22T23:34:18.511Z,8.00
2023-01-22T23:36:48.307Z,7.40
2023-01-22T23:39:18.228Z,9.40
2023-01-22T23:41:45.979Z,6.60
2023-01-22T23:44:13.841Z,9.60
2023-01-22T23:46:42.206Z,5.20
2023-01-22T23:49:10.857Z,6.00
2023-01-22T23:51:41.476Z,9.20
2023-01-22T23:54:09.653Z,6.20
2023-01-22T23:56:37.072Z,10.20
2023-01-22T23:59:05.067Z,10.40
